Time;durP1;ratioP1;P1;durP2;ratioP2;P2;SDS_P1;SDS_P2;PMS_P1;PMS_P2;Temp;Humidity;BMP_temperature;BMP_pressure;BME280_temperature;BME280_humidity;BME280_pressure;Samples;Min_cycle;Max_cycle;Signal;HPM_P1;HPM_P2
2023/06/02 00:02:09;;;;;;;22.23;3.10;;;10.40;87.30;;;;;;5034101;28;20028;-67
2023/06/02 00:04:37;;;;;;;24.70;3.78;;;10.50;87.20;;;;;;5050580;28;20480;-67
2023/06/02 00:07:03;;;;;;;17.05;3.20;;;10.50;87.20;;;;;;5045182;28;20025;-67
2023/06/02 00:09:29;;;;;;;17.73;3.78;;;10.40;87.60;;;;;;5050251;28;20122;-68
2023/06/02 00:11:55;;;;;;;20.27;3.90;;;10.40;87.60;;;;;;5041791;28;20025;-68
2023/06/02 00:14:21;;;;;;;17.15;3.92;;;10.60;87.40;;;;;;5047877;28;20056;-68
2023/06/02 00:16:47;;;;;;;20.20;4.15;;;10.50;87.40;;;;;;5049555;28;20025;-67
2023/06/02 00:19:13;;;;;;;17.73;3.80;;;10.50;87.70;;;;;;5044411;28;20037;-67
2023/06/02 00:21:40;;;;;;;20.48;3.45;;;10.40;88.00;;;;;;5046756;28;20845;-67
2023/06/02 00:24:06;;;;;;;21.92;3.88;;;10.50;88.20;;;;;;5050532;28;20025;-68
2023/06/02 00:26:32;;;;;;;15.85;3.53;;;10.50;88.20;;;;;;5055544;28;20067;-67
2023/06/02 00:28:57;;;;;;;18.60;3.63;;;10.50;88.00;;;;;;5048642;28;20572;-67
2023/06/02 00:31:23;;;;;;;20.70;3.92;;;10.60;87.90;;;;;;5044351;28;20036;-68
2023/06/02 00:33:49;;;;;;;19.35;3.65;;;10.50;88.20;;;;;;5053222;28;20067;-67
2023/06/02 00:36:14;;;;;;;18.20;4.00;;;10.50;87.90;;;;;;5047049;28;20024;-67
2023/06/02 00:38:41;;;;;;;18.10;3.17;;;10.50;88.20;;;;;;5040644;28;20382;-67
2023/06/02 00:41:07;;;;;;;16.95;3.70;;;10.60;88.20;;;;;;5053332;28;20021;-68
2023/06/02 00:43:33;;;;;;;18.58;3.80;;;10.60;88.00;;;;;;5048854;28;20025;-67
2023/06/02 00:45:58;;;;;;;15.40;3.50;;;10.60;88.10;;;;;;5037893;28;20033;-68
2023/06/02 00:48:25;;;;;;;21.55;3.60;;;10.60;87.90;;;;;;5052291;28;20149;-67
2023/06/02 00:50:51;;;;;;;22.10;3.60;;;10.50;88.20;;;;;;5052018;28;20027;-68
2023/06/02 00:53:17;;;;;;;16.95;3.10;;;10.60;88.10;;;;;;5050981;28;20108;-67
2023/06/02 00:55:43;;;;;;;19.45;4.10;;;10.60;88.10;;;;;;5054031;28;20108;-68
2023/06/02 00:58:13;;;;;;;18.05;3.83;;;10.50;88.00;;;;;;5055111;28;20013;-68
2023/06/02 01:00:42;;;;;;;20.17;3.55;;;10.60;88.10;;;;;;5049710;28;20413;-68
2023/06/02 01:03:07;;;;;;;21.02;3.50;;;10.50;88.20;;;;;;5050305;28;20033;-68
2023/06/02 01:05:37;;;;;;;19.67;4.15;;;10.50;88.30;;;;;;5048751;28;20457;-68
2023/06/02 01:08:04;;;;;;;15.98;3.28;;;10.60;88.30;;;;;;5050672;28;20029;-67
2023/06/02 01:10:31;;;;;;;23.25;3.22;;;10.60;88.20;;;;;;5051479;28;20036;-67
2023/06/02 01:12:57;;;;;;;25.25;4.80;;;10.60;88.10;;;;;;5048151;28;20021;-67
2023/06/02 01:15:23;;;;;;;16.27;3.70;;;10.50;88.40;;;;;;5051098;28;20025;-67
2023/06/02 01:17:53;;;;;;;13.50;3.10;;;10.50;88.50;;;;;;5054890;28;20031;-67
2023/06/02 01:20:21;;;;;;;23.35;4.45;;;10.40;88.60;;;;;;5052285;28;20402;-67
2023/06/02 01:23:17;;;;;;;13.38;3.75;;;10.50;88.70;;;;;;5046879;28;20017;-67
2023/06/02 01:25:44;;;;;;;18.60;3.88;;;10.40;88.60;;;;;;5065104;28;20025;-68
2023/06/02 01:28:09;;;;;;;22.38;4.00;;;10.50;88.60;;;;;;5046932;28;20045;-67
2023/06/02 01:30:36;;;;;;;24.55;4.90;;;10.50;88.40;;;;;;5052449;28;20385;-67
2023/06/02 01:33:07;;;;;;;27.38;3.95;;;10.50;88.70;;;;;;5043788;28;20025;-67
2023/06/02 01:35:42;;;;;;;22.80;4.50;;;10.50;88.80;;;;;;5055494;28;20025;-67
2023/06/02 01:38:09;;;;;;;32.85;3.92;;;10.50;88.80;;;;;;5048274;28;20062;-67
2023/06/02 01:40:35;;;;;;;22.88;3.58;;;10.50;88.80;;;;;;5044481;28;20436;-67
2023/06/02 01:43:02;;;;;;;24.17;4.20;;;10.50;88.80;;;;;;5050421;28;20078;-67
2023/06/02 01:45:30;;;;;;;25.90;4.00;;;10.50;88.60;;;;;;5048470;28;20025;-67
2023/06/02 01:48:06;;;;;;;21.50;3.78;;;10.60;88.70;;;;;;5047645;28;20016;-67
2023/06/02 01:50:32;;;;;;;25.90;4.10;;;10.50;88.80;;;;;;5042569;28;20041;-67
2023/06/02 01:52:58;;;;;;;22.60;3.80;;;10.50;88.90;;;;;;5059132;28;20021;-67
2023/06/02 01:55:24;;;;;;;22.00;4.15;;;10.50;88.90;;;;;;5052765;28;20422;-67
2023/06/02 01:57:50;;;;;;;19.83;3.75;;;10.50;88.90;;;;;;5050569;28;20017;-67
2023/06/02 02:00:16;;;;;;;22.50;3.72;;;10.40;89.20;;;;;;5046526;28;20035;-67
2023/06/02 02:02:42;;;;;;;21.30;4.32;;;10.50;89.20;;;;;;5045761;28;20074;-68
2023/06/02 02:05:07;;;;;;;14.02;3.35;;;10.50;88.90;;;;;;5051461;28;20029;-67
2023/06/02 02:07:35;;;;;;;20.05;3.70;;;10.40;89.20;;;;;;5048785;28;20031;-68
2023/06/02 02:10:02;;;;;;;22.35;3.80;;;10.40;89.20;;;;;;5057594;28;20032;-68
2023/06/02 02:12:28;;;;;;;21.90;4.03;;;10.40;89.40;;;;;;5052682;28;20023;-68
2023/06/02 02:14:56;;;;;;;13.95;3.63;;;10.40;89.40;;;;;;5047832;28;20151;-68
2023/06/02 02:17:24;;;;;;;22.80;3.55;;;10.50;89.30;;;;;;5043288;28;20056;-68
2023/06/02 02:19:50;;;;;;;23.00;3.97;;;10.50;89.20;;;;;;5052766;28;20478;-68
2023/06/02 02:22:16;;;;;;;19.67;3.80;;;10.40;89.50;;;;;;5051088;28;20032;-68
2023/06/02 02:24:42;;;;;;;16.77;3.67;;;10.40;89.40;;;;;;5050041;28;20445;-68
2023/06/02 02:27:08;;;;;;;24.65;4.95;;;10.50;89.40;;;;;;5048403;28;20064;-68
2023/06/02 02:29:35;;;;;;;16.70;3.83;;;10.50;89.50;;;;;;5034933;28;20365;-67
2023/06/02 02:32:01;;;;;;;15.15;4.25;;;10.50;89.70;;;;;;5057600;28;20063;-67
2023/06/02 02:34:26;;;;;;;20.58;3.83;;;10.50;89.60;;;;;;5360179;23;20060;-71
2023/06/02 02:36:52;;;;;;;25.80;4.57;;;10.40;90.00;;;;;;5042930;28;20033;-67
2023/06/02 02:39:18;;;;;;;24.20;4.25;;;10.40;89.90;;;;;;5044480;28;20029;-68
2023/06/02 02:41:43;;;;;;;23.58;4.30;;;10.40;90.10;;;;;;5046561;28;20646;-67
2023/06/02 02:44:09;;;;;;;19.90;4.78;;;10.40;90.00;;;;;;5049760;28;20032;-68
2023/06/02 02:46:34;;;;;;;24.20;4.80;;;10.40;90.30;;;;;;5040911;28;20395;-68
2023/06/02 02:49:00;;;;;;;21.90;4.50;;;10.40;90.10;;;;;;5047388;28;20473;-67
2023/06/02 02:51:25;;;;;;;27.40;4.53;;;10.40;90.50;;;;;;5047404;28;20075;-68
2023/06/02 02:53:51;;;;;;;24.80;4.25;;;10.40;90.60;;;;;;5040930;28;20072;-67
2023/06/02 02:56:16;;;;;;;21.83;4.30;;;10.40;90.30;;;;;;5043727;28;20037;-68
2023/06/02 02:58:42;;;;;;;15.32;3.78;;;10.40;90.50;;;;;;5047152;28;20414;-67
2023/06/02 03:01:15;;;;;;;24.98;5.03;;;10.40;90.50;;;;;;5042590;28;20036;-67
2023/06/02 03:03:41;;;;;;;26.50;4.45;;;10.40;90.40;;;;;;5047260;28;20447;-67
2023/06/02 03:06:07;;;;;;;19.55;3.78;;;10.40;90.40;;;;;;5044996;28;20115;-67
2023/06/02 03:08:32;;;;;;;22.00;4.53;;;10.40;90.50;;;;;;5037422;28;20033;-68
2023/06/02 03:10:58;;;;;;;24.10;4.82;;;10.40;90.70;;;;;;5046734;28;20017;-68
2023/06/02 03:13:23;;;;;;;23.73;4.38;;;10.30;90.80;;;;;;5043809;28;20347;-67
2023/06/02 03:15:50;;;;;;;20.15;4.78;;;10.30;90.90;;;;;;5037157;28;20021;-68
2023/06/02 03:18:16;;;;;;;22.27;4.57;;;10.30;90.90;;;;;;5046731;28;20020;-68
2023/06/02 03:20:41;;;;;;;20.25;4.10;;;10.30;91.00;;;;;;5045951;28;20032;-67
2023/06/02 03:23:10;;;;;;;20.42;5.63;;;10.30;91.00;;;;;;5046856;28;20037;-68
2023/06/02 03:25:35;;;;;;;25.38;4.63;;;10.30;91.00;;;;;;5045418;28;20048;-69
2023/06/02 03:28:02;;;;;;;20.33;4.13;;;10.30;91.10;;;;;;5046093;28;20037;-68
2023/06/02 03:30:27;;;;;;;25.00;4.55;;;10.30;91.20;;;;;;5044669;28;20029;-67
2023/06/02 03:32:53;;;;;;;26.00;4.82;;;10.40;91.30;;;;;;5041814;28;20029;-67
2023/06/02 03:35:18;;;;;;;19.52;5.07;;;10.30;91.20;;;;;;5042578;28;20048;-69
2023/06/02 03:37:44;;;;;;;21.77;4.30;;;10.30;91.50;;;;;;5043715;28;20033;-67
2023/06/02 03:40:10;;;;;;;26.95;4.78;;;10.20;91.60;;;;;;5043515;28;20036;-67
2023/06/02 03:42:35;;;;;;;24.65;5.15;;;10.20;92.00;;;;;;5043968;28;20029;-67
2023/06/02 03:45:02;;;;;;;26.02;5.30;;;10.20;91.90;;;;;;5040187;28;20338;-67
2023/06/02 03:47:27;;;;;;;25.65;5.50;;;10.10;92.20;;;;;;5043101;28;20098;-69
2023/06/02 03:49:53;;;;;;;29.02;5.20;;;10.10;92.30;;;;;;5047898;28;20029;-68
2023/06/02 03:52:18;;;;;;;17.98;4.68;;;10.10;92.60;;;;;;5046063;28;20088;-68
2023/06/02 03:54:44;;;;;;;23.05;5.38;;;10.10;92.70;;;;;;5047653;28;20488;-67
2023/06/02 03:57:09;;;;;;;21.48;4.97;;;10.00;92.90;;;;;;5049620;28;20047;-67
2023/06/02 03:59:35;;;;;;;26.48;5.80;;;10.00;92.90;;;;;;5043997;28;21481;-68
2023/06/02 04:02:00;;;;;;;21.65;5.93;;;10.00;93.00;;;;;;5038646;28;20144;-69
2023/06/02 04:04:26;;;;;;;30.98;5.55;;;10.00;93.00;;;;;;5047044;28;20061;-70
2023/06/02 04:06:53;;;;;;;16.80;4.43;;;9.90;93.20;;;;;;5042915;28;20064;-67
2023/06/02 04:09:18;;;;;;;27.63;5.90;;;9.90;93.40;;;;;;5052611;28;20025;-69
2023/06/02 04:11:44;;;;;;;23.00;4.97;;;9.90;93.40;;;;;;5045898;28;20036;-68
2023/06/02 04:14:10;;;;;;;31.23;5.30;;;9.90;93.40;;;;;;5049410;28;20108;-68
2023/06/02 04:16:35;;;;;;;26.33;5.65;;;9.90;93.50;;;;;;5040625;28;20126;-69
2023/06/02 04:19:01;;;;;;;28.55;5.97;;;10.00;93.70;;;;;;5045064;28;20430;-69
2023/06/02 04:21:26;;;;;;;25.42;5.82;;;10.10;93.60;;;;;;5043319;28;20196;-68
2023/06/02 04:23:52;;;;;;;23.58;5.40;;;10.10;93.40;;;;;;5046321;28;20120;-68
2023/06/02 04:26:17;;;;;;;28.58;6.13;;;10.20;93.30;;;;;;5043814;28;20108;-69
2023/06/02 04:28:43;;;;;;;26.52;6.38;;;10.30;93.20;;;;;;5053357;28;20078;-67
2023/06/02 04:31:11;;;;;;;28.08;5.93;;;10.30;93.20;;;;;;5043667;28;20040;-70
2023/06/02 04:33:37;;;;;;;30.08;6.45;;;10.40;92.90;;;;;;5043011;28;20034;-68
2023/06/02 04:36:03;;;;;;;22.60;5.32;;;10.50;92.70;;;;;;5043365;28;20315;-70
2023/06/02 04:38:29;;;;;;;30.70;5.63;;;10.60;92.60;;;;;;5041772;28;20025;-69
2023/06/02 04:40:56;;;;;;;30.02;5.95;;;10.50;92.50;;;;;;5048113;28;20033;-68
2023/06/02 04:43:22;;;;;;;24.40;5.20;;;10.70;92.50;;;;;;5053523;28;20055;-69
2023/06/02 04:45:47;;;;;;;28.23;5.45;;;10.80;92.00;;;;;;5042072;28;20053;-69
2023/06/02 04:48:13;;;;;;;30.05;5.70;;;10.80;92.10;;;;;;5047449;28;20040;-68
2023/06/02 04:50:39;;;;;;;27.25;5.30;;;10.80;91.80;;;;;;5041757;28;20410;-68
2023/06/02 04:53:05;;;;;;;25.77;5.10;;;10.80;92.00;;;;;;5049079;28;20076;-69
2023/06/02 04:55:31;;;;;;;25.02;5.05;;;10.80;92.00;;;;;;5041595;28;20445;-69
2023/06/02 04:57:56;;;;;;;20.60;5.13;;;10.70;91.90;;;;;;5036736;28;20025;-69
2023/06/02 05:00:22;;;;;;;22.75;5.30;;;10.80;91.90;;;;;;5040229;28;20444;-69
2023/06/02 05:02:47;;;;;;;25.60;5.50;;;10.80;92.00;;;;;;5042678;28;20083;-71
2023/06/02 05:05:13;;;;;;;22.05;5.03;;;10.80;92.00;;;;;;5044706;28;20116;-69
2023/06/02 05:07:38;;;;;;;23.67;5.70;;;10.80;92.20;;;;;;5044196;28;20029;-69
2023/06/02 05:10:04;;;;;;;21.92;5.50;;;10.70;92.20;;;;;;5045618;28;20071;-68
2023/06/02 05:12:30;;;;;;;19.10;5.57;;;10.70;92.30;;;;;;5047221;28;20029;-69
2023/06/02 05:14:56;;;;;;;25.27;5.65;;;10.80;92.30;;;;;;5041384;28;20036;-69
2023/06/02 05:17:28;;;;;;;26.50;6.38;;;10.70;92.50;;;;;;5035929;28;20113;-69
2023/06/02 05:19:54;;;;;;;33.00;6.05;;;10.80;92.50;;;;;;5044820;28;20068;-69
2023/06/02 05:22:20;;;;;;;25.42;5.63;;;10.90;92.30;;;;;;5040713;28;20021;-71
2023/06/02 05:24:46;;;;;;;27.63;6.05;;;11.00;92.30;;;;;;5048490;28;20330;-70
2023/06/02 05:27:12;;;;;;;23.55;5.65;;;11.00;92.10;;;;;;5048459;28;20037;-69
2023/06/02 05:29:38;;;;;;;30.58;5.93;;;11.00;91.90;;;;;;5045282;28;20505;-69
2023/06/02 05:32:05;;;;;;;19.48;5.97;;;11.10;92.10;;;;;;5038256;28;20021;-68
2023/06/02 05:34:32;;;;;;;22.60;4.57;;;11.10;92.00;;;;;;5047895;28;20134;-68
2023/06/02 05:36:58;;;;;;;27.88;5.60;;;11.20;91.60;;;;;;5049126;28;20199;-68
2023/06/02 05:39:24;;;;;;;31.38;5.88;;;11.30;91.80;;;;;;5044375;28;20033;-68
2023/06/02 05:41:49;;;;;;;26.33;5.80;;;11.40;91.60;;;;;;5043508;28;20029;-68
2023/06/02 05:44:15;;;;;;;17.00;4.85;;;11.50;91.10;;;;;;5042681;28;20496;-68
2023/06/02 05:46:40;;;;;;;21.15;6.22;;;11.50;90.70;;;;;;5048175;28;20032;-68
2023/06/02 05:49:06;;;;;;;21.35;5.22;;;11.70;90.80;;;;;;5043270;28;20150;-68
2023/06/02 05:51:31;;;;;;;25.55;5.43;;;11.70;90.30;;;;;;5045706;28;20029;-68
2023/06/02 05:53:57;;;;;;;25.85;5.25;;;11.80;90.30;;;;;;5046315;28;20327;-68
2023/06/02 05:56:22;;;;;;;19.17;4.57;;;11.90;89.90;;;;;;5045071;28;20178;-68
2023/06/02 05:58:48;;;;;;;25.23;5.40;;;12.00;89.70;;;;;;5043300;28;20135;-68
2023/06/02 06:01:14;;;;;;;15.75;5.03;;;12.10;89.70;;;;;;5041500;28;20031;-70
2023/06/02 06:03:39;;;;;;;27.10;5.25;;;12.20;89.20;;;;;;5039326;28;20018;-68
2023/06/02 06:06:05;;;;;;;19.70;4.38;;;12.30;89.00;;;;;;5046785;28;20087;-68
2023/06/02 06:08:31;;;;;;;16.20;4.07;;;12.40;88.60;;;;;;5043447;28;20036;-68
2023/06/02 06:10:56;;;;;;;24.73;4.22;;;12.50;88.50;;;;;;5056476;28;20572;-68
2023/06/02 06:13:22;;;;;;;17.42;3.72;;;12.60;88.10;;;;;;5043860;28;20211;-69
2023/06/02 06:15:50;;;;;;;17.13;4.22;;;12.70;87.60;;;;;;5037018;28;20108;-68
2023/06/02 06:18:16;;;;;;;16.20;4.30;;;12.80;87.50;;;;;;5046739;28;20033;-68
2023/06/02 06:20:45;;;;;;;21.52;4.47;;;12.90;86.70;;;;;;5049457;28;20025;-68
2023/06/02 06:23:12;;;;;;;18.80;4.65;;;13.10;87.10;;;;;;5051440;28;20024;-68
2023/06/02 06:25:38;;;;;;;17.08;4.47;;;13.20;86.20;;;;;;5051016;28;20025;-70
2023/06/02 06:28:04;;;;;;;21.80;3.92;;;13.20;86.70;;;;;;5038029;28;20035;-69
2023/06/02 06:30:29;;;;;;;17.52;3.90;;;13.80;86.70;;;;;;5049497;28;20348;-68
2023/06/02 06:32:55;;;;;;;13.57;3.90;;;13.90;84.30;;;;;;5045730;28;20121;-69
2023/06/02 06:35:20;;;;;;;13.23;3.75;;;13.90;84.80;;;;;;5042107;28;20106;-68
2023/06/02 06:37:46;;;;;;;13.52;3.30;;;13.90;85.10;;;;;;5042455;28;20416;-71
2023/06/02 06:40:11;;;;;;;13.93;3.17;;;13.80;84.20;;;;;;5038353;28;20049;-69
2023/06/02 06:42:37;;;;;;;13.70;3.65;;;14.00;84.80;;;;;;5045395;28;20102;-69
2023/06/02 06:45:02;;;;;;;16.52;3.30;;;14.40;84.30;;;;;;5044263;28;20028;-68
2023/06/02 06:47:28;;;;;;;13.10;2.90;;;14.60;82.40;;;;;;5044160;28;20528;-69
2023/06/02 06:49:54;;;;;;;14.57;3.03;;;14.80;81.80;;;;;;5040744;28;20372;-68
2023/06/02 06:52:20;;;;;;;13.48;3.35;;;15.10;82.30;;;;;;5035183;28;20341;-68
2023/06/02 06:54:45;;;;;;;14.13;3.28;;;15.20;80.50;;;;;;5039554;28;20105;-70
2023/06/02 06:57:11;;;;;;;10.13;3.15;;;15.30;80.90;;;;;;5051605;28;20104;-67
2023/06/02 06:59:39;;;;;;;10.07;3.20;;;15.20;79.90;;;;;;5046612;28;20081;-66
2023/06/02 07:02:05;;;;;;;12.52;3.10;;;15.20;80.10;;;;;;5043019;28;20041;-66
2023/06/02 07:04:30;;;;;;;8.38;3.05;;;15.40;79.80;;;;;;5045299;28;20111;-67
2023/06/02 07:06:56;;;;;;;19.67;3.28;;;15.80;80.40;;;;;;5043220;28;20532;-67
2023/06/02 07:09:22;;;;;;;15.55;3.60;;;15.50;78.90;;;;;;5050713;28;20064;-68
2023/06/02 07:11:48;;;;;;;12.65;3.90;;;15.30;80.00;;;;;;5046269;28;20101;-66
2023/06/02 07:14:13;;;;;;;12.95;3.45;;;15.60;80.20;;;;;;5043401;28;20461;-67
2023/06/02 07:16:39;;;;;;;20.15;3.35;;;15.60;79.70;;;;;;5045918;28;20186;-69
2023/06/02 07:19:04;;;;;;;13.85;3.85;;;15.40;79.20;;;;;;5047002;28;20143;-67
2023/06/02 07:21:30;;;;;;;10.82;3.13;;;15.40;80.00;;;;;;5048762;28;20283;-67
2023/06/02 07:23:55;;;;;;;16.50;3.28;;;15.20;80.50;;;;;;5046998;28;20422;-66
2023/06/02 07:26:21;;;;;;;12.77;3.42;;;15.40;80.40;;;;;;5043375;28;20032;-66
2023/06/02 07:28:46;;;;;;;13.43;3.25;;;16.10;81.10;;;;;;5044682;28;20033;-68
2023/06/02 07:31:12;;;;;;;11.27;2.92;;;16.20;78.70;;;;;;5035221;28;20147;-67
2023/06/02 07:33:38;;;;;;;13.60;3.45;;;16.30;76.90;;;;;;5041939;28;20037;-67
2023/06/02 07:36:03;;;;;;;11.73;3.33;;;16.50;76.80;;;;;;5047648;28;20040;-67
2023/06/02 07:38:29;;;;;;;17.20;3.45;;;16.70;78.10;;;;;;5044010;28;20029;-66
2023/06/02 07:40:54;;;;;;;9.40;3.38;;;16.60;76.70;;;;;;5037390;28;20033;-67
2023/06/02 07:43:20;;;;;;;16.80;3.15;;;16.70;77.80;;;;;;5044990;28;20454;-67
2023/06/02 07:45:45;;;;;;;12.75;3.33;;;16.70;77.70;;;;;;5043362;28;20045;-69
2023/06/02 07:48:11;;;;;;;10.13;3.47;;;16.80;76.40;;;;;;5043391;28;20104;-67
2023/06/02 07:50:36;;;;;;;14.23;3.50;;;16.50;78.00;;;;;;5046535;28;20166;-66
2023/06/02 07:53:02;;;;;;;12.05;4.00;;;16.20;77.40;;;;;;5047074;28;20113;-67
2023/06/02 07:55:28;;;;;;;15.98;4.32;;;16.20;78.30;;;;;;5046982;28;20025;-66
2023/06/02 07:57:54;;;;;;;12.90;3.78;;;16.10;79.50;;;;;;5039951;28;20028;-69
2023/06/02 08:00:21;;;;;;;13.35;4.00;;;16.30;79.30;;;;;;5043209;28;20477;-66
2023/06/02 08:02:47;;;;;;;12.85;3.33;;;16.40;77.90;;;;;;5039784;28;20025;-67
2023/06/02 08:05:14;;;;;;;12.95;3.70;;;16.80;79.00;;;;;;5048475;28;20032;-68
2023/06/02 08:07:40;;;;;;;14.60;3.92;;;16.90;77.30;;;;;;5043915;28;20044;-66
2023/06/02 08:10:06;;;;;;;16.20;3.90;;;17.10;77.30;;;;;;5041297;28;20029;-68
2023/06/02 08:12:32;;;;;;;11.20;3.20;;;17.00;77.20;;;;;;5046062;28;20370;-67
2023/06/02 08:14:57;;;;;;;14.80;4.13;;;17.00;76.80;;;;;;5038856;28;20065;-67
2023/06/02 08:17:29;;;;;;;10.93;3.70;;;17.00;77.70;;;;;;5036781;28;20132;-67
2023/06/02 08:20:01;;;;;;;10.90;3.83;;;16.90;78.30;;;;;;5041739;28;20029;-67
2023/06/02 08:22:28;;;;;;;11.85;3.67;;;16.90;77.10;;;;;;5044260;28;20369;-67
2023/06/02 08:24:54;;;;;;;10.63;3.45;;;16.80;77.10;;;;;;5045540;28;20040;-66
2023/06/02 08:27:21;;;;;;;12.70;4.05;;;17.00;77.20;;;;;;5042716;28;20028;-67
2023/06/02 08:29:49;;;;;;;13.13;3.58;;;16.80;77.80;;;;;;5045299;28;20033;-68
2023/06/02 08:32:17;;;;;;;13.07;4.05;;;16.80;76.80;;;;;;5036775;28;20029;-68
2023/06/02 08:34:44;;;;;;;10.85;2.97;;;16.60;76.00;;;;;;5045982;28;20131;-68
2023/06/02 08:37:15;;;;;;;8.70;3.05;;;16.70;78.00;;;;;;5046842;28;20039;-68
2023/06/02 08:39:40;;;;;;;;;;;16.60;77.30;;;;;;5042779;28;20110;-68
2023/06/02 08:42:08;;;;;;;6.15;2.67;;;16.70;77.20;;;;;;5046443;28;19944;-69
2023/06/02 08:44:35;;;;;;;8.60;3.53;;;16.50;78.10;;;;;;5040632;28;20182;-68
2023/06/02 08:47:02;;;;;;;10.70;3.03;;;16.50;78.30;;;;;;5037033;28;20442;-68
2023/06/02 08:49:28;;;;;;;11.05;2.92;;;16.50;78.00;;;;;;5042875;28;20021;-68
2023/06/02 08:52:02;;;;;;;10.07;3.25;;;16.60;77.60;;;;;;5047107;28;20031;-68
2023/06/02 08:54:29;;;;;;;10.23;3.33;;;16.90;76.40;;;;;;5038830;28;20467;-68
2023/06/02 08:56:57;;;;;;;11.00;3.10;;;17.20;76.50;;;;;;5042980;28;20277;-70
2023/06/02 08:59:24;;;;;;;14.73;3.22;;;17.40;74.10;;;;;;5036584;28;20028;-68
2023/06/02 09:01:50;;;;;;;8.85;2.90;;;17.70;74.20;;;;;;5043957;28;20112;-68
2023/06/02 09:04:17;;;;;;;10.68;3.28;;;17.50;73.60;;;;;;5043512;28;20227;-68
2023/06/02 09:06:43;;;;;;;12.80;3.20;;;17.70;73.60;;;;;;5038939;28;20465;-70
2023/06/02 09:09:09;;;;;;;10.35;3.53;;;17.60;73.60;;;;;;5048112;28;20083;-69
2023/06/02 09:11:35;;;;;;;8.70;2.45;;;17.60;71.90;;;;;;5048284;28;20130;-70
2023/06/02 09:14:00;;;;;;;7.68;2.70;;;17.70;72.40;;;;;;5045966;28;20033;-69
2023/06/02 09:16:37;;;;;;;12.00;2.85;;;17.80;72.80;;;;;;5041854;28;20029;-69
2023/06/02 09:19:03;;;;;;;10.93;3.38;;;18.20;73.40;;;;;;5046393;28;20017;-68
2023/06/02 09:21:32;;;;;;;7.45;2.90;;;18.10;73.00;;;;;;5052646;28;20020;-68
2023/06/02 09:23:59;;;;;;;8.07;2.65;;;17.90;71.70;;;;;;5049897;28;20097;-70
2023/06/02 09:26:27;;;;;;;7.68;2.47;;;17.60;71.40;;;;;;5046468;28;20040;-69
2023/06/02 09:29:00;;;;;;;8.93;2.90;;;17.70;73.80;;;;;;5050393;28;20033;-68
2023/06/02 09:31:28;;;;;;;9.30;2.50;;;17.80;73.00;;;;;;5045389;28;20048;-69
2023/06/02 09:34:00;;;;;;;8.35;2.75;;;18.20;72.80;;;;;;5050257;28;20334;-69
2023/06/02 09:36:29;;;;;;;7.25;2.17;;;18.50;72.60;;;;;;5047148;28;20422;-70
2023/06/02 09:38:56;;;;;;;11.57;2.97;;;18.50;71.00;;;;;;5044355;28;20017;-69
2023/06/02 09:41:22;;;;;;;7.47;2.88;;;18.50;70.90;;;;;;5046871;28;20021;-69
2023/06/02 09:43:47;;;;;;;10.80;2.90;;;18.30;69.70;;;;;;5050337;28;20031;-69
2023/06/02 09:46:14;;;;;;;6.97;2.25;;;18.40;69.10;;;;;;5043489;28;20377;-68
2023/06/02 09:48:56;;;;;;;7.97;2.38;;;18.00;69.50;;;;;;5042609;28;20333;-68
2023/06/02 09:51:23;;;;;;;6.97;2.50;;;18.10;71.10;;;;;;5047552;28;20109;-70
2023/06/02 09:53:50;;;;;;;7.55;2.22;;;17.80;72.50;;;;;;5047030;28;20056;-69
2023/06/02 09:56:16;;;;;;;10.60;2.55;;;17.50;72.00;;;;;;5043429;28;20021;-69
2023/06/02 09:58:42;;;;;;;10.07;2.50;;;17.50;73.70;;;;;;5042858;28;20056;-70
2023/06/02 10:01:11;;;;;;;6.55;2.20;;;17.40;72.70;;;;;;5039054;28;20152;-69
2023/06/02 10:03:37;;;;;;;6.30;2.35;;;17.50;71.90;;;;;;5041162;28;20037;-70
2023/06/02 10:06:22;;;;;;;9.18;2.33;;;17.90;70.80;;;;;;5044245;28;20484;-68
2023/06/02 10:09:25;;;;;;;6.03;2.45;;;18.10;71.20;;;;;;5044341;28;20020;-68
2023/06/02 10:12:23;;;;;;;8.23;2.35;;;18.00;70.10;;;;;;5041472;28;20022;-69
2023/06/02 10:15:05;;;;;;;10.07;2.72;;;18.20;70.50;;;;;;5012209;28;20130;-69
2023/06/02 10:17:51;;;;;;;7.30;2.53;;;18.20;70.10;;;;;;5043973;28;20109;-68
2023/06/02 10:20:26;;;;;;;13.02;2.55;;;18.00;71.40;;;;;;5047870;28;20027;-69
2023/06/02 10:23:35;;;;;;;15.57;2.80;;;18.30;72.00;;;;;;5048588;28;20040;-69
2023/06/02 10:26:12;;;;;;;14.02;2.45;;;18.00;71.40;;;;;;5038041;28;20519;-69
2023/06/02 10:28:37;;;;;;;8.20;2.75;;;18.40;72.30;;;;;;5039618;28;20029;-69
2023/06/02 10:31:07;;;;;;;8.13;2.78;;;18.70;71.00;;;;;;5038440;28;20049;-69
2023/06/02 10:33:47;;;;;;;10.83;3.10;;;18.40;68.60;;;;;;5047965;28;20020;-69
2023/06/02 10:36:13;;;;;;;6.57;2.25;;;18.90;68.30;;;;;;5042458;28;20132;-69
2023/06/02 10:38:39;;;;;;;8.18;2.83;;;19.00;69.60;;;;;;5039317;28;20028;-69
2023/06/02 10:41:06;;;;;;;8.40;2.30;;;19.00;69.00;;;;;;5051328;28;20027;-70
2023/06/02 10:43:33;;;;;;;6.72;2.42;;;19.60;69.40;;;;;;5049864;28;20074;-69
2023/06/02 10:46:20;;;;;;;6.22;2.13;;;19.10;67.50;;;;;;5038836;28;20434;-69
2023/06/02 10:48:46;;;;;;;4.55;1.77;;;18.80;67.90;;;;;;5042938;28;20341;-70
2023/06/02 10:51:14;;;;;;;7.72;2.03;;;18.60;66.90;;;;;;5043771;28;20029;-69
2023/06/02 10:53:58;;;;;;;8.13;2.20;;;18.90;67.50;;;;;;5042705;28;20100;-68
2023/06/02 10:56:38;;;;;;;7.70;2.42;;;18.90;66.50;;;;;;5040737;28;20044;-69
2023/06/02 10:59:05;;;;;;;9.23;2.10;;;19.20;66.40;;;;;;5040419;28;20122;-69
2023/06/02 11:01:45;;;;;;;6.78;2.38;;;19.00;66.10;;;;;;5035224;28;20055;-70
2023/06/02 11:04:31;;;;;;;8.00;2.30;;;19.00;64.90;;;;;;5038871;28;20063;-69
2023/06/02 11:07:26;;;;;;;8.45;2.00;;;19.30;66.80;;;;;;5039592;28;20426;-69
2023/06/02 11:10:00;;;;;;;6.80;2.15;;;19.10;65.90;;;;;;5037561;28;20033;-69
2023/06/02 11:12:50;;;;;;;7.85;2.42;;;19.20;65.70;;;;;;5039000;28;20040;-68
2023/06/02 11:15:19;;;;;;;7.80;1.85;;;19.30;65.40;;;;;;5036598;28;20068;-69
2023/06/02 11:17:47;;;;;;;6.22;2.13;;;19.30;65.20;;;;;;5037043;28;20045;-69
2023/06/02 11:20:15;;;;;;;8.32;2.40;;;19.80;66.00;;;;;;5040328;28;20073;-69
2023/06/02 11:22:41;;;;;;;6.97;2.17;;;20.00;63.10;;;;;;5040032;28;20091;-68
2023/06/02 11:25:08;;;;;;;5.63;2.20;;;20.00;60.20;;;;;;5039290;28;20377;-69
2023/06/02 11:27:40;;;;;;;5.88;2.20;;;21.00;63.80;;;;;;5037450;28;20037;-68
2023/06/02 11:30:08;;;;;;;8.73;2.28;;;20.00;59.60;;;;;;5039378;28;20123;-69
2023/06/02 11:32:34;;;;;;;5.43;1.98;;;20.00;62.20;;;;;;5038219;28;20030;-70
2023/06/02 11:35:05;;;;;;;5.90;2.15;;;19.90;61.90;;;;;;5035782;28;20215;-68
2023/06/02 11:37:31;;;;;;;5.05;1.95;;;19.90;63.90;;;;;;5039746;28;20033;-68
2023/06/02 11:39:57;;;;;;;5.07;2.17;;;19.00;62.10;;;;;;5042183;28;20092;-69
2023/06/02 11:42:35;;;;;;;5.95;2.20;;;19.20;63.00;;;;;;5046969;28;20108;-69
2023/06/02 11:45:01;;;;;;;4.68;1.70;;;19.10;65.20;;;;;;5043702;28;20072;-69
2023/06/02 11:47:27;;;;;;;7.05;2.05;;;19.20;63.30;;;;;;5038460;28;20080;-69
2023/06/02 11:49:52;;;;;;;6.82;1.80;;;19.80;60.60;;;;;;5053720;28;20364;-69
2023/06/02 11:52:18;;;;;;;6.20;1.98;;;19.90;58.70;;;;;;5044459;28;20044;-69
2023/06/02 11:54:53;;;;;;;4.40;1.92;;;21.20;58.80;;;;;;5045206;28;20041;-69
2023/06/02 11:57:29;;;;;;;6.30;1.55;;;20.70;57.90;;;;;;5037483;28;20162;-70
2023/06/02 12:00:21;;;;;;;6.03;2.13;;;21.70;59.90;;;;;;5041050;28;20353;-69
2023/06/02 12:02:51;;;;;;;5.65;1.80;;;20.70;58.50;;;;;;5028108;28;20055;-69
2023/06/02 12:05:34;;;;;;;7.78;1.88;;;20.30;59.40;;;;;;5032820;28;20037;-69
2023/06/02 12:08:14;;;;;;;2.88;1.25;;;19.60;59.90;;;;;;5043804;28;20028;-69
2023/06/02 12:10:41;;;;;;;4.40;1.63;;;19.00;61.60;;;;;;5041649;28;20016;-70
2023/06/02 12:13:06;;;;;;;5.57;1.75;;;18.60;62.50;;;;;;5043787;28;20150;-68
2023/06/02 12:15:33;;;;;;;6.90;1.80;;;18.70;64.00;;;;;;5042724;28;20092;-68
2023/06/02 12:18:04;;;;;;;5.38;1.52;;;18.50;64.20;;;;;;5040477;28;20059;-69
2023/06/02 12:20:34;;;;;;;5.03;1.80;;;18.50;65.60;;;;;;5039114;28;20024;-69
2023/06/02 12:23:00;;;;;;;8.20;1.85;;;18.50;64.80;;;;;;5040314;28;20021;-68
2023/06/02 12:25:26;;;;;;;6.93;1.55;;;18.60;62.40;;;;;;5047384;28;20033;-69
2023/06/02 12:27:51;;;;;;;4.05;1.63;;;18.70;64.10;;;;;;5042680;28;20430;-68
2023/06/02 12:30:17;;;;;;;4.93;1.88;;;18.60;63.00;;;;;;5046027;28;20025;-68
2023/06/02 12:32:43;;;;;;;4.53;1.45;;;18.90;62.60;;;;;;5037766;28;20128;-68
2023/06/02 12:35:09;;;;;;;4.13;1.40;;;19.20;60.50;;;;;;5046638;28;20037;-68
2023/06/02 12:37:34;;;;;;;5.63;1.63;;;19.50;60.40;;;;;;5044518;28;20353;-69
2023/06/02 12:40:00;;;;;;;6.05;1.63;;;19.70;57.90;;;;;;5047070;28;20028;-68
2023/06/02 12:42:25;;;;;;;3.58;1.48;;;19.70;57.70;;;;;;5049077;28;20370;-70
2023/06/02 12:44:52;;;;;;;4.65;1.20;;;20.80;57.20;;;;;;5046295;28;20441;-70